createdAt,value
2019-03-28T00:01:07.826Z,5.35
2019-03-28T00:03:40.210Z,5.34
2019-03-28T00:06:12.621Z,5.35
2019-03-28T00:08:45.265Z,5.31
2019-03-28T00:11:17.665Z,5.26
2019-03-28T00:13:50.020Z,5.25
2019-03-28T00:16:23.198Z,5.21
2019-03-28T00:18:57.539Z,5.14
2019-03-28T00:21:30.059Z,5.13
2019-03-28T00:24:21.318Z,5.06
2019-03-28T00:26:53.791Z,5.05
2019-03-28T00:29:26.462Z,5.06
2019-03-28T00:31:58.923Z,5.05
2019-03-28T00:34:31.275Z,5.04
2019-03-28T00:37:03.648Z,5.07
2019-03-28T00:39:36.295Z,5.04
2019-03-28T00:42:08.664Z,5.00
2019-03-28T00:44:41.383Z,4.93
2019-03-28T00:47:13.766Z,4.88
2019-03-28T00:49:46.406Z,4.94
2019-03-28T00:52:18.802Z,4.87
2019-03-28T00:54:51.311Z,4.82
2019-03-28T00:57:23.735Z,4.82
2019-03-28T00:59:56.109Z,4.76
2019-03-28T01:02:28.489Z,4.75
2019-03-28T01:05:00.880Z,4.73
2019-03-28T01:07:33.349Z,4.72
2019-03-28T01:10:06.289Z,4.68
2019-03-28T01:12:38.954Z,4.73
2019-03-28T01:15:11.374Z,4.77
2019-03-28T01:17:44.086Z,4.71
2019-03-28T01:20:16.398Z,4.61
2019-03-28T01:22:48.997Z,4.58
2019-03-28T01:25:21.314Z,4.52
2019-03-28T01:27:53.628Z,4.51
2019-03-28T01:30:26.229Z,4.47
2019-03-28T01:32:58.845Z,4.45
2019-03-28T01:35:31.455Z,4.47
2019-03-28T01:38:04.039Z,4.46
2019-03-28T01:40:36.634Z,4.49
2019-03-28T01:43:09.282Z,4.52
2019-03-28T01:45:41.854Z,4.53
2019-03-28T01:48:14.480Z,4.57
2019-03-28T01:50:47.186Z,4.58
2019-03-28T01:53:19.863Z,4.56
2019-03-28T01:55:52.214Z,4.50
2019-03-28T01:58:24.822Z,4.51
2019-03-28T02:00:57.221Z,4.52
2019-03-28T02:03:29.871Z,4.52
2019-03-28T02:06:02.469Z,4.55
2019-03-28T02:08:35.092Z,4.57
2019-03-28T02:11:07.842Z,4.57
2019-03-28T02:13:40.602Z,4.49
2019-03-28T02:16:12.963Z,4.48
2019-03-28T02:18:45.363Z,4.46
2019-03-28T02:21:18.005Z,4.44
2019-03-28T02:23:50.408Z,4.52
2019-03-28T02:26:23.075Z,4.48
2019-03-28T02:28:55.446Z,4.50
2019-03-28T02:31:28.116Z,4.56
2019-03-28T02:34:00.515Z,4.65
2019-03-28T02:36:33.225Z,4.59
2019-03-28T02:39:07.838Z,4.58
2019-03-28T02:41:41.428Z,4.60
2019-03-28T02:44:14.068Z,4.63
2019-03-28T02:46:46.724Z,4.57
2019-03-28T02:49:20.206Z,4.56
2019-03-28T02:51:52.547Z,4.52
2019-03-28T02:54:25.181Z,4.52
2019-03-28T02:56:57.571Z,4.53
2019-03-28T02:59:31.289Z,4.52
2019-03-28T03:02:03.945Z,4.52
2019-03-28T03:04:36.407Z,4.59
2019-03-28T03:07:08.795Z,4.59
2019-03-28T03:09:41.173Z,4.55
2019-03-28T03:12:13.536Z,4.51
2019-03-28T03:14:45.990Z,4.48
2019-03-28T03:17:18.667Z,4.48
2019-03-28T03:19:51.491Z,4.41
2019-03-28T03:22:24.304Z,4.48
2019-03-28T03:24:56.929Z,4.46
2019-03-28T03:27:29.321Z,4.49
2019-03-28T03:30:03.612Z,4.48
2019-03-28T03:32:35.785Z,4.50
2019-03-28T03:35:08.886Z,4.48
2019-03-28T03:37:41.533Z,4.53
2019-03-28T03:40:15.738Z,4.49
2019-03-28T03:42:48.401Z,4.46
2019-03-28T03:45:21.034Z,4.40
2019-03-28T03:47:53.701Z,4.40
2019-03-28T03:50:30.761Z,4.39
2019-03-28T03:53:03.521Z,4.37
2019-03-28T03:55:36.179Z,4.37
2019-03-28T03:58:16.045Z,4.36
2019-03-28T04:00:43.710Z,4.32
2019-03-28T04:03:16.156Z,4.33
2019-03-28T04:05:48.564Z,4.31
2019-03-28T04:08:20.952Z,4.34
2019-03-28T04:10:53.491Z,4.31
2019-03-28T04:13:26.000Z,4.28
2019-03-28T04:15:58.391Z,4.28
2019-03-28T04:18:30.782Z,4.24
2019-03-28T04:21:03.165Z,4.26
2019-03-28T04:23:35.533Z,4.23
2019-03-28T04:26:08.202Z,4.20
2019-03-28T04:28:40.596Z,4.18
2019-03-28T04:31:13.279Z,4.18
2019-03-28T04:33:45.901Z,4.14
2019-03-28T04:36:18.540Z,4.11
2019-03-28T04:38:51.168Z,4.07
2019-03-28T04:41:23.840Z,4.04
2019-03-28T04:43:56.493Z,4.04
2019-03-28T04:46:30.327Z,4.09
2019-03-28T04:49:02.955Z,4.06
2019-03-28T04:51:35.615Z,4.12
2019-03-28T04:54:09.806Z,4.07
2019-03-28T04:56:42.679Z,4.06
2019-03-28T04:59:15.460Z,4.04
2019-03-28T05:02:01.019Z,3.97
2019-03-28T05:04:22.721Z,3.86
2019-03-28T05:06:55.459Z,3.91
2019-03-28T05:09:28.100Z,3.92
2019-03-28T05:12:00.741Z,3.88
2019-03-28T05:14:33.410Z,3.90
2019-03-28T05:17:06.076Z,3.86
2019-03-28T05:19:38.714Z,3.92
2019-03-28T05:22:11.109Z,3.93
2019-03-28T05:24:43.471Z,3.90
2019-03-28T05:27:16.730Z,3.83
2019-03-28T05:29:49.446Z,3.83
2019-03-28T05:32:22.130Z,3.86
2019-03-28T05:34:54.511Z,3.91
2019-03-28T05:37:26.895Z,4.00
2019-03-28T05:39:59.556Z,3.97
2019-03-28T05:42:32.275Z,3.98
2019-03-28T05:45:05.039Z,4.05
2019-03-28T05:47:37.729Z,4.06
2019-03-28T05:50:10.590Z,4.11
2019-03-28T05:52:43.253Z,4.17
2019-03-28T05:55:15.871Z,4.22
2019-03-28T05:57:48.534Z,4.31
2019-03-28T06:00:21.198Z,4.57
2019-03-28T06:02:54.852Z,4.93
2019-03-28T06:05:27.263Z,5.25
2019-03-28T06:07:59.665Z,5.54
2019-03-28T06:10:32.026Z,5.82
2019-03-28T06:13:04.425Z,6.04
2019-03-28T06:15:36.842Z,6.29
2019-03-28T06:18:09.235Z,6.48
2019-03-28T06:20:41.904Z,6.64
2019-03-28T06:23:14.354Z,6.82
2019-03-28T06:25:46.733Z,7.05
2019-03-28T06:28:19.137Z,7.26
2019-03-28T06:30:51.541Z,7.42
2019-03-28T06:33:23.951Z,7.62
2019-03-28T06:35:56.337Z,7.81
2019-03-28T06:38:28.852Z,7.99
2019-03-28T06:41:01.214Z,8.17
2019-03-28T06:43:33.856Z,8.44
2019-03-28T06:46:06.218Z,8.62
2019-03-28T06:48:38.637Z,8.81
2019-03-28T06:51:11.014Z,8.85
2019-03-28T06:53:43.411Z,9.07
2019-03-28T06:56:15.801Z,9.30
2019-03-28T06:58:48.151Z,9.35
2019-03-28T07:01:20.577Z,9.43
2019-03-28T07:03:53.014Z,9.52
2019-03-28T07:06:25.412Z,9.74
2019-03-28T07:08:57.829Z,9.81
2019-03-28T07:11:30.318Z,10.04
2019-03-28T07:14:02.698Z,10.15
2019-03-28T07:16:35.109Z,10.40
2019-03-28T07:19:07.521Z,10.54
2019-03-28T07:21:39.900Z,10.79
2019-03-28T07:24:12.280Z,10.95
2019-03-28T07:26:44.676Z,11.18
2019-03-28T07:29:18.145Z,11.42
2019-03-28T07:31:50.557Z,11.51
2019-03-28T07:34:22.933Z,11.51
2019-03-28T07:36:55.335Z,11.73
2019-03-28T07:39:27.728Z,11.81
2019-03-28T07:42:00.157Z,12.08
2019-03-28T07:44:32.548Z,12.42
2019-03-28T07:47:04.952Z,12.69
2019-03-28T07:49:37.810Z,12.84
2019-03-28T07:52:10.211Z,13.00
2019-03-28T07:54:42.607Z,13.06
2019-03-28T07:57:16.068Z,13.23
2019-03-28T07:59:48.474Z,13.46
2019-03-28T08:02:20.867Z,13.60
2019-03-28T08:04:53.289Z,13.76
2019-03-28T08:07:25.658Z,14.06
2019-03-28T08:09:58.074Z,14.13
2019-03-28T08:12:30.713Z,14.19
2019-03-28T08:15:03.350Z,14.31
2019-03-28T08:17:35.775Z,14.34
2019-03-28T08:20:10.726Z,14.49
2019-03-28T08:22:43.116Z,14.54
2019-03-28T08:25:17.025Z,14.66
2019-03-28T08:27:49.531Z,14.89
2019-03-28T08:30:34.912Z,15.01
2019-03-28T08:33:08.160Z,14.99
2019-03-28T08:35:40.905Z,15.16
2019-03-28T08:38:13.436Z,15.15
2019-03-28T08:40:46.460Z,15.07
2019-03-28T08:43:18.883Z,15.18
2019-03-28T08:45:51.483Z,15.51
2019-03-28T08:48:25.856Z,15.77
2019-03-28T08:50:58.350Z,15.75
2019-03-28T08:53:30.819Z,15.77
2019-03-28T08:56:03.333Z,15.79
2019-03-28T08:58:38.185Z,15.84
2019-03-28T09:01:09.976Z,15.92
2019-03-28T09:03:42.577Z,15.85
2019-03-28T09:06:17.075Z,16.01
2019-03-28T09:08:49.170Z,16.27
2019-03-28T09:11:21.731Z,16.36
2019-03-28T09:13:54.144Z,16.52
2019-03-28T09:16:27.564Z,16.62
2019-03-28T09:18:59.998Z,16.56
2019-03-28T09:21:33.461Z,16.30
2019-03-28T09:24:05.933Z,16.23
2019-03-28T09:26:38.304Z,16.28
2019-03-28T09:29:10.837Z,16.21
2019-03-28T09:31:43.439Z,16.22
2019-03-28T09:34:15.839Z,16.11
2019-03-28T09:36:48.200Z,16.09
2019-03-28T09:39:20.576Z,16.23
2019-03-28T09:41:52.975Z,16.31
2019-03-28T09:44:25.364Z,16.30
2019-03-28T09:46:57.766Z,16.20
2019-03-28T09:49:30.281Z,16.38
2019-03-28T09:52:02.664Z,16.46
2019-03-28T09:54:35.078Z,16.22
2019-03-28T09:57:07.517Z,15.91
2019-03-28T09:59:39.905Z,16.16
2019-03-28T10:02:12.286Z,16.17
2019-03-28T10:04:44.782Z,16.14
2019-03-28T10:07:17.172Z,16.00
2019-03-28T10:09:49.570Z,15.91
2019-03-28T10:12:23.027Z,16.01
2019-03-28T10:14:55.683Z,16.02
2019-03-28T10:17:28.079Z,16.19
2019-03-28T10:20:00.464Z,16.45
2019-03-28T10:22:32.855Z,16.48
2019-03-28T10:25:07.243Z,16.42
2019-03-28T10:27:39.783Z,16.54
2019-03-28T10:30:13.386Z,16.63
2019-03-28T10:32:46.019Z,16.67
2019-03-28T10:35:31.038Z,16.75
2019-03-28T10:38:03.473Z,16.83
2019-03-28T10:40:36.469Z,16.93
2019-03-28T10:43:09.979Z,17.07
2019-03-28T10:45:42.352Z,16.90
2019-03-28T10:48:14.765Z,16.75
2019-03-28T10:50:47.160Z,16.52
2019-03-28T10:53:19.852Z,16.42
2019-03-28T10:55:52.270Z,16.42
2019-03-28T10:58:24.747Z,16.28
2019-03-28T11:00:57.618Z,16.22
2019-03-28T11:03:30.324Z,16.33
2019-03-28T11:06:02.988Z,16.47
2019-03-28T11:08:36.673Z,16.70
2019-03-28T11:11:09.240Z,16.56
2019-03-28T11:13:41.634Z,16.60
2019-03-28T11:16:15.236Z,16.60
2019-03-28T11:18:47.930Z,16.66
2019-03-28T11:21:20.594Z,16.41
2019-03-28T11:23:52.991Z,16.09
2019-03-28T11:26:25.529Z,15.62
2019-03-28T11:29:00.839Z,15.60
2019-03-28T11:31:45.765Z,15.51
2019-03-28T11:34:07.259Z,15.39
2019-03-28T11:36:39.671Z,15.38
2019-03-28T11:39:30.893Z,15.42
2019-03-28T11:42:03.294Z,15.68
2019-03-28T11:44:35.906Z,16.00
2019-03-28T11:47:08.317Z,16.24
2019-03-28T11:49:40.844Z,16.48
2019-03-28T11:52:13.214Z,16.82
2019-03-28T11:54:45.925Z,16.93
2019-03-28T11:57:18.306Z,17.03
2019-03-28T11:59:50.980Z,17.05
2019-03-28T12:02:25.293Z,16.69
2019-03-28T12:04:57.865Z,16.50
2019-03-28T12:07:30.289Z,16.42
2019-03-28T12:10:02.715Z,16.46
2019-03-28T12:12:35.115Z,16.32
2019-03-28T12:15:08.555Z,16.44
2019-03-28T12:17:40.954Z,16.66
2019-03-28T12:20:14.868Z,16.54
2019-03-28T12:22:47.259Z,16.55
2019-03-28T12:25:19.650Z,16.42
2019-03-28T12:27:52.018Z,16.32
2019-03-28T12:30:25.150Z,16.05
2019-03-28T12:32:57.543Z,15.77
2019-03-28T12:35:29.966Z,15.70
2019-03-28T12:38:02.716Z,15.75
2019-03-28T12:40:35.614Z,15.73
2019-03-28T12:43:08.000Z,15.73
2019-03-28T12:45:40.421Z,15.70
2019-03-28T12:48:12.805Z,15.74
2019-03-28T12:50:58.062Z,15.86
2019-03-28T12:53:19.268Z,15.98
2019-03-28T12:55:51.692Z,16.08
2019-03-28T12:58:24.120Z,16.26
2019-03-28T13:00:56.826Z,16.30
2019-03-28T13:03:34.785Z,16.46
2019-03-28T13:06:03.401Z,16.48
2019-03-28T13:08:35.843Z,16.57
2019-03-28T13:11:08.369Z,16.59
2019-03-28T13:13:40.753Z,16.55
2019-03-28T13:16:14.139Z,16.51
2019-03-28T13:18:46.538Z,16.47
2019-03-28T13:21:18.997Z,16.34
2019-03-28T13:23:51.668Z,16.31
2019-03-28T13:26:24.085Z,16.18
2019-03-28T13:28:56.492Z,16.13
2019-03-28T13:31:28.900Z,16.13
2019-03-28T13:34:01.460Z,16.32
2019-03-28T13:36:34.156Z,16.42
2019-03-28T13:39:08.608Z,16.30
2019-03-28T13:41:44.180Z,16.48
2019-03-28T13:44:15.125Z,16.71
2019-03-28T13:46:58.789Z,16.75
2019-03-28T13:49:31.195Z,16.67
2019-03-28T13:52:04.575Z,16.53
2019-03-28T13:54:36.975Z,16.35
2019-03-28T13:57:09.367Z,16.17
2019-03-28T13:59:41.768Z,15.99
2019-03-28T14:02:14.206Z,15.76
2019-03-28T14:04:46.589Z,15.60
2019-03-28T14:07:19.026Z,15.42
2019-03-28T14:09:51.494Z,15.44
2019-03-28T14:12:23.922Z,15.46
2019-03-28T14:14:56.341Z,15.33
2019-03-28T14:17:28.848Z,15.42
2019-03-28T14:20:01.228Z,15.42
2019-03-28T14:22:33.764Z,15.57
2019-03-28T14:25:06.223Z,15.50
2019-03-28T14:27:38.574Z,15.48
2019-03-28T14:30:12.234Z,15.62
2019-03-28T14:32:53.185Z,15.74
2019-03-28T14:35:18.756Z,15.71
2019-03-28T14:37:51.187Z,15.70
2019-03-28T14:40:23.600Z,15.63
2019-03-28T14:42:56.035Z,15.38
2019-03-28T14:45:28.554Z,15.15
2019-03-28T14:48:01.033Z,15.17
2019-03-28T14:50:39.121Z,15.26
2019-03-28T14:53:11.540Z,15.30
2019-03-28T14:55:44.119Z,15.40
2019-03-28T14:58:16.523Z,15.46
2019-03-28T15:00:53.508Z,15.50
2019-03-28T15:03:27.208Z,15.60
2019-03-28T15:06:00.183Z,15.74
2019-03-28T15:08:32.727Z,15.71
2019-03-28T15:11:06.205Z,15.50
2019-03-28T15:13:40.466Z,15.45
2019-03-28T15:16:12.746Z,15.47
2019-03-28T15:18:45.324Z,15.48
2019-03-28T15:21:17.842Z,15.30
2019-03-28T15:23:50.351Z,15.31
2019-03-28T15:26:23.846Z,15.28
2019-03-28T15:28:56.244Z,15.31
2019-03-28T15:31:28.715Z,15.30
2019-03-28T15:34:01.220Z,15.31
2019-03-28T15:36:33.681Z,15.37
2019-03-28T15:39:17.917Z,15.24
2019-03-28T15:41:50.388Z,15.20
2019-03-28T15:44:22.861Z,15.19
2019-03-28T15:46:55.282Z,15.28
2019-03-28T15:49:27.896Z,15.37
2019-03-28T15:52:03.069Z,15.45
2019-03-28T15:54:34.588Z,15.43
2019-03-28T15:57:07.149Z,15.26
2019-03-28T15:59:39.544Z,15.25
2019-03-28T16:02:11.944Z,15.31
2019-03-28T16:04:44.353Z,15.25
2019-03-28T16:07:16.784Z,15.22
2019-03-28T16:09:49.307Z,15.19
2019-03-28T16:12:21.756Z,15.03
2019-03-28T16:14:54.146Z,15.03
2019-03-28T16:17:26.672Z,15.11
2019-03-28T16:20:00.897Z,15.12
2019-03-28T16:22:33.375Z,15.02
2019-03-28T16:25:05.882Z,14.98
2019-03-28T16:27:39.377Z,14.85
2019-03-28T16:30:13.687Z,14.86
2019-03-28T16:32:46.201Z,14.79
2019-03-28T16:35:21.177Z,14.85
2019-03-28T16:37:53.759Z,14.77
2019-03-28T16:40:26.440Z,14.64
2019-03-28T16:42:58.895Z,14.59
2019-03-28T16:45:31.342Z,14.50
2019-03-28T16:48:04.854Z,14.37
2019-03-28T16:50:37.257Z,14.35
2019-03-28T16:53:09.933Z,14.35
2019-03-28T16:55:42.677Z,14.35
2019-03-28T16:58:15.090Z,14.27
2019-03-28T17:00:47.543Z,14.25
2019-03-28T17:03:19.939Z,14.20
2019-03-28T17:05:52.431Z,14.20
2019-03-28T17:08:25.450Z,14.19
2019-03-28T17:10:58.010Z,14.10
2019-03-28T17:13:30.493Z,14.06
2019-03-28T17:16:02.907Z,14.03
2019-03-28T17:18:35.394Z,13.99
2019-03-28T17:21:07.824Z,13.85
2019-03-28T17:23:40.274Z,13.87
2019-03-28T17:26:12.669Z,13.85
2019-03-28T17:28:45.256Z,13.78
2019-03-28T17:31:18.873Z,13.68
2019-03-28T17:33:51.459Z,13.62
2019-03-28T17:36:26.733Z,13.59
2019-03-28T17:38:58.013Z,13.63
2019-03-28T17:41:31.716Z,13.56
2019-03-28T17:44:04.537Z,13.53
2019-03-28T17:46:36.995Z,13.52
2019-03-28T17:49:09.547Z,13.51
2019-03-28T17:51:42.040Z,13.48
2019-03-28T17:54:14.433Z,13.49
2019-03-28T17:56:47.678Z,13.53
2019-03-28T17:59:20.531Z,13.49
2019-03-28T18:01:52.933Z,13.48
2019-03-28T18:04:25.465Z,13.43
2019-03-28T18:06:57.918Z,13.34
2019-03-28T18:09:30.372Z,13.34
2019-03-28T18:12:02.773Z,13.32
2019-03-28T18:14:35.195Z,13.30
2019-03-28T18:17:07.597Z,13.31
2019-03-28T18:19:40.022Z,13.36
2019-03-28T18:22:12.479Z,13.43
2019-03-28T18:24:44.977Z,13.43
2019-03-28T18:27:17.647Z,13.45
2019-03-28T18:29:51.123Z,13.49
2019-03-28T18:32:23.539Z,13.55
2019-03-28T18:35:05.074Z,13.49
2019-03-28T18:37:30.196Z,13.37
2019-03-28T18:40:04.482Z,13.30
2019-03-28T18:42:36.678Z,13.28
2019-03-28T18:45:12.743Z,13.17
2019-03-28T18:47:47.063Z,13.11
2019-03-28T18:50:19.984Z,13.08
2019-03-28T18:52:52.371Z,12.99
2019-03-28T18:55:24.861Z,13.00
2019-03-28T18:57:57.308Z,12.96
2019-03-28T19:00:30.855Z,12.99
2019-03-28T19:03:03.278Z,12.92
2019-03-28T19:05:35.656Z,12.98
2019-03-28T19:08:08.091Z,12.94
2019-03-28T19:10:40.520Z,12.96
2019-03-28T19:13:13.849Z,13.07
2019-03-28T19:15:46.476Z,13.00
2019-03-28T19:18:18.864Z,12.98
2019-03-28T19:20:51.445Z,13.00
2019-03-28T19:23:24.754Z,13.02
2019-03-28T19:25:57.465Z,13.04
2019-03-28T19:28:29.809Z,13.06
2019-03-28T19:31:02.363Z,13.08
2019-03-28T19:33:38.015Z,13.02
2019-03-28T19:36:09.122Z,13.00
2019-03-28T19:38:43.229Z,12.99
2019-03-28T19:41:15.694Z,12.93
2019-03-28T19:43:48.181Z,12.95
2019-03-28T19:46:20.677Z,12.94
2019-03-28T19:48:53.121Z,12.94
2019-03-28T19:51:28.242Z,12.93
2019-03-28T19:53:59.730Z,12.91
2019-03-28T19:56:32.215Z,12.85
2019-03-28T19:59:04.696Z,12.91
2019-03-28T20:01:37.155Z,12.83
2019-03-28T20:04:09.535Z,12.80
2019-03-28T20:06:42.067Z,12.75
2019-03-28T20:09:16.535Z,12.68
2019-03-28T20:11:48.609Z,12.60
2019-03-28T20:14:21.012Z,12.56
2019-03-28T20:16:53.612Z,12.44
2019-03-28T20:19:26.039Z,12.39
2019-03-28T20:21:59.723Z,12.32
2019-03-28T20:24:32.299Z,12.28
2019-03-28T20:27:04.783Z,12.21
2019-03-28T20:29:39.988Z,12.11
2019-03-28T20:32:11.948Z,12.03
2019-03-28T20:34:48.927Z,11.98
2019-03-28T20:37:20.340Z,11.94
2019-03-28T20:39:52.803Z,11.93
2019-03-28T20:42:25.343Z,11.94
2019-03-28T20:44:57.780Z,11.95
2019-03-28T20:47:30.231Z,11.92
2019-03-28T20:50:02.657Z,11.90
2019-03-28T20:52:36.190Z,11.92
2019-03-28T20:55:08.931Z,11.94
2019-03-28T20:57:41.534Z,11.95
2019-03-28T21:00:16.435Z,11.94
2019-03-28T21:02:49.037Z,11.97
2019-03-28T21:05:21.694Z,11.92
2019-03-28T21:07:54.160Z,11.93
2019-03-28T21:10:27.390Z,11.91
2019-03-28T21:12:59.784Z,11.94
2019-03-28T21:15:32.278Z,11.96
2019-03-28T21:18:04.762Z,11.96
2019-03-28T21:20:37.181Z,11.97
2019-03-28T21:23:09.609Z,11.95
2019-03-28T21:25:42.073Z,11.94
2019-03-28T21:28:14.515Z,11.86
2019-03-28T21:30:47.949Z,11.75
2019-03-28T21:33:21.064Z,11.74
2019-03-28T21:35:53.515Z,11.70
2019-03-28T21:38:25.977Z,11.62
2019-03-28T21:40:59.685Z,11.62
2019-03-28T21:43:32.490Z,11.57
2019-03-28T21:46:04.931Z,11.48
2019-03-28T21:48:37.501Z,11.39
2019-03-28T21:51:11.588Z,11.34
2019-03-28T21:53:44.278Z,11.26
2019-03-28T21:56:16.887Z,11.18
2019-03-28T21:58:49.532Z,11.15
2019-03-28T22:01:21.970Z,11.10
2019-03-28T22:03:54.415Z,11.01
2019-03-28T22:06:26.874Z,10.93
2019-03-28T22:08:59.302Z,10.79
2019-03-28T22:11:31.857Z,10.66
2019-03-28T22:14:04.316Z,10.56
2019-03-28T22:16:36.729Z,10.54
2019-03-28T22:19:10.289Z,10.51
2019-03-28T22:21:42.688Z,10.44
2019-03-28T22:24:15.265Z,10.35
2019-03-28T22:26:47.703Z,10.32
2019-03-28T22:29:20.848Z,10.24
2019-03-28T22:31:53.522Z,10.20
2019-03-28T22:34:26.012Z,10.17
2019-03-28T22:37:00.006Z,10.12
2019-03-28T22:39:32.753Z,10.04
2019-03-28T22:42:05.276Z,9.96
2019-03-28T22:44:37.727Z,9.93
2019-03-28T22:47:10.130Z,9.85
2019-03-28T22:49:42.605Z,9.83
2019-03-28T22:52:15.021Z,9.75
2019-03-28T22:54:47.414Z,9.77
2019-03-28T22:57:19.840Z,9.72
2019-03-28T22:59:52.927Z,9.69
2019-03-28T23:02:25.535Z,9.64
2019-03-28T23:04:57.943Z,9.59
2019-03-28T23:07:30.424Z,9.56
2019-03-28T23:10:02.866Z,9.49
2019-03-28T23:12:35.423Z,9.44
2019-03-28T23:15:09.039Z,9.44
2019-03-28T23:17:41.434Z,9.48
2019-03-28T23:20:14.144Z,9.41
2019-03-28T23:22:46.609Z,9.50
2019-03-28T23:25:19.083Z,9.50
2019-03-28T23:27:52.724Z,9.59
2019-03-28T23:30:25.240Z,9.68
2019-03-28T23:32:57.815Z,9.73
2019-03-28T23:35:30.286Z,9.82
2019-03-28T23:38:02.683Z,9.89
2019-03-28T23:40:35.114Z,9.97
2019-03-28T23:43:07.517Z,10.07
2019-03-28T23:45:39.967Z,10.17
2019-03-28T23:48:12.652Z,10.18
2019-03-28T23:50:45.182Z,10.19
2019-03-28T23:53:17.615Z,10.22
2019-03-28T23:55:50.022Z,10.27
2019-03-28T23:58:22.543Z,10.28
